Time;durP1;ratioP1;P1;durP2;ratioP2;P2;SDS_P1;SDS_P2;PMS_P1;PMS_P2;Temp;Humidity;BMP_temperature;BMP_pressure;BME280_temperature;BME280_humidity;BME280_pressure;Samples;Min_cycle;Max_cycle;Signal;HPM_P1;HPM_P2
2023/12/15 00:00:34;;;;;;;6.90;4.80;;;6.00;99.90;;;;;;5032963;28;20021;-66
2023/12/15 00:03:01;;;;;;;6.70;4.40;;;6.00;99.90;;;;;;5032937;28;20057;-67
2023/12/15 00:05:27;;;;;;;7.80;4.63;;;6.00;99.90;;;;;;5032388;28;20067;-65
2023/12/15 00:07:52;;;;;;;9.07;4.70;;;6.00;99.90;;;;;;5033187;28;20026;-66
2023/12/15 00:10:19;;;;;;;6.43;4.00;;;6.10;99.90;;;;;;5034896;28;20090;-66
2023/12/15 00:12:44;;;;;;;8.00;4.10;;;6.10;99.90;;;;;;5052252;28;20078;-66
2023/12/15 00:15:10;;;;;;;7.10;4.77;;;6.10;99.90;;;;;;5052687;28;20107;-66
2023/12/15 00:17:36;;;;;;;9.23;4.63;;;6.10;99.90;;;;;;5034847;28;20047;-66
2023/12/15 00:20:03;;;;;;;5.87;3.97;;;6.20;99.90;;;;;;5046138;28;20021;-66
2023/12/15 00:22:29;;;;;;;5.67;3.73;;;6.20;99.90;;;;;;5033451;28;20409;-66
2023/12/15 00:24:55;;;;;;;5.70;4.17;;;6.20;99.90;;;;;;5032996;28;20017;-66
2023/12/15 00:27:21;;;;;;;6.67;4.00;;;6.20;99.90;;;;;;5033198;28;20033;-66
2023/12/15 00:33:49;;;;;;;7.07;4.40;;;6.20;99.90;;;;;;4895804;29;20574;-66
2023/12/15 00:53:45;;;;;;;7.97;3.30;;;6.20;99.90;;;;;;4876703;29;20089;-66
2023/12/15 00:56:11;;;;;;;4.67;3.20;;;6.20;99.90;;;;;;4943527;28;20397;-66
2023/12/15 00:58:37;;;;;;;6.50;3.20;;;6.20;99.90;;;;;;4952338;29;20039;-66
2023/12/15 01:01:03;;;;;;;8.03;2.87;;;6.20;99.90;;;;;;5015588;28;20366;-66
2023/12/15 01:03:30;;;;;;;7.20;2.73;;;6.20;99.90;;;;;;5018886;28;20049;-66
2023/12/15 01:05:56;;;;;;;5.10;2.90;;;6.20;99.90;;;;;;5036010;28;20060;-66
2023/12/15 01:08:22;;;;;;;5.97;3.03;;;6.30;99.90;;;;;;5036077;28;20049;-66
2023/12/15 01:10:49;;;;;;;5.10;2.57;;;6.30;99.90;;;;;;5035896;28;20036;-67
2023/12/15 01:13:15;;;;;;;5.63;3.17;;;6.30;99.90;;;;;;5018614;28;20517;-67
2023/12/15 01:15:40;;;;;;;6.40;3.10;;;6.30;99.90;;;;;;5036209;28;20496;-66
2023/12/15 01:18:06;;;;;;;4.27;2.83;;;6.30;99.90;;;;;;5018315;28;20052;-66
2023/12/15 01:20:32;;;;;;;4.57;2.57;;;6.30;99.90;;;;;;5035896;28;20067;-66
2023/12/15 01:22:58;;;;;;;5.50;2.83;;;6.20;99.90;;;;;;5035456;28;20029;-66
2023/12/15 01:25:24;;;;;;;5.80;3.00;;;6.20;99.90;;;;;;5035663;28;20030;-66
2023/12/15 01:27:50;;;;;;;5.10;2.60;;;6.20;99.90;;;;;;5035865;28;20033;-66
2023/12/15 01:30:16;;;;;;;6.77;3.37;;;6.20;99.90;;;;;;5035523;28;20029;-66
2023/12/15 01:32:41;;;;;;;6.47;3.83;;;6.20;99.90;;;;;;5035182;28;20033;-66
2023/12/15 01:35:08;;;;;;;7.83;4.00;;;6.20;99.90;;;;;;5035610;28;20053;-66
2023/12/15 01:37:33;;;;;;;6.60;4.00;;;6.10;99.90;;;;;;5035446;28;20033;-68
2023/12/15 01:40:00;;;;;;;8.40;3.93;;;6.10;99.90;;;;;;5035709;28;20028;-68
2023/12/15 01:42:26;;;;;;;6.70;3.30;;;6.10;99.90;;;;;;5035402;28;20044;-68
2023/12/15 01:44:53;;;;;;;8.47;2.90;;;6.10;99.90;;;;;;5035234;28;20054;-68
2023/12/15 01:47:19;;;;;;;4.30;2.33;;;6.00;99.90;;;;;;5035015;28;20030;-68
2023/12/15 01:49:46;;;;;;;5.87;2.57;;;6.00;99.90;;;;;;5035347;28;20036;-68
2023/12/15 01:52:12;;;;;;;4.33;2.53;;;6.00;99.90;;;;;;5035393;28;20104;-68
2023/12/15 01:54:38;;;;;;;5.40;2.30;;;6.00;99.90;;;;;;5035044;28;20113;-68
2023/12/15 01:57:04;;;;;;;5.40;2.60;;;6.00;99.90;;;;;;5034886;28;20072;-66
2023/12/15 01:59:49;;;;;;;3.40;2.23;;;6.10;99.90;;;;;;5032747;28;20096;-67
2023/12/15 02:02:15;;;;;;;4.87;2.17;;;6.10;99.90;;;;;;5033046;28;20075;-66
2023/12/15 02:04:42;;;;;;;3.17;1.87;;;6.10;99.90;;;;;;5034180;28;20022;-66
2023/12/15 02:07:08;;;;;;;4.07;2.30;;;6.10;99.90;;;;;;5035426;28;20388;-67
2023/12/15 02:09:34;;;;;;;4.93;2.50;;;6.10;99.90;;;;;;5035780;28;20363;-66
2023/12/15 02:23:58;;;;;;;3.97;2.50;;;6.10;99.90;;;;;;4778962;30;20050;-66
2023/12/15 02:27:26;;;;;;;4.13;2.33;;;6.10;99.90;;;;;;4732428;30;20086;-67
2023/12/15 02:31:12;;;;;;;;;;;;;;;;;;;;;
2023/12/15 02:37:16;;;;;;;3.83;2.30;;;6.00;99.90;;;;;;4865864;29;20129;-67
2023/12/15 02:39:42;;;;;;;6.90;4.33;;;6.00;99.90;;;;;;4935016;29;20031;-67
2023/12/15 02:42:08;;;;;;;8.00;4.60;;;6.00;99.90;;;;;;4934985;29;20028;-66
2023/12/15 02:44:34;;;;;;;6.17;3.80;;;5.90;99.90;;;;;;5003754;28;20562;-66
2023/12/15 02:47:00;;;;;;;7.07;4.40;;;5.90;99.90;;;;;;5054366;28;20381;-66
2023/12/15 02:49:25;;;;;;;8.67;5.17;;;5.90;99.90;;;;;;5054212;28;20033;-66
2023/12/15 02:51:51;;;;;;;8.43;5.03;;;5.80;99.90;;;;;;5036235;28;20029;-67
2023/12/15 02:54:17;;;;;;;6.10;3.93;;;5.70;99.90;;;;;;5054280;28;20021;-66
2023/12/15 02:56:43;;;;;;;6.97;3.67;;;5.70;99.90;;;;;;5053803;28;20029;-67
2023/12/15 02:59:08;;;;;;;6.27;4.07;;;5.60;99.90;;;;;;5054139;28;20021;-66
2023/12/15 03:01:34;;;;;;;6.43;4.00;;;5.60;99.90;;;;;;5053749;28;20067;-67
2023/12/15 03:04:00;;;;;;;8.97;4.43;;;5.60;99.90;;;;;;5054056;28;20072;-66
2023/12/15 03:06:26;;;;;;;6.80;4.00;;;5.60;99.90;;;;;;5053519;28;20108;-67
2023/12/15 03:08:52;;;;;;;8.27;4.97;;;5.60;99.90;;;;;;5033823;28;20540;-67
2023/12/15 03:11:18;;;;;;;7.40;3.83;;;5.50;99.90;;;;;;5033517;28;20022;-66
2023/12/15 03:13:43;;;;;;;6.03;3.37;;;5.40;99.90;;;;;;5033593;28;20036;-66
2023/12/15 03:16:12;;;;;;;5.80;3.30;;;5.40;99.90;;;;;;5033766;28;20470;-66
2023/12/15 03:18:38;;;;;;;4.40;2.70;;;5.40;99.90;;;;;;5033660;28;20533;-67
2023/12/15 03:21:04;;;;;;;5.17;2.50;;;5.40;99.90;;;;;;5033524;28;20026;-67
2023/12/15 03:23:30;;;;;;;5.50;2.27;;;5.40;99.90;;;;;;5033555;28;20033;-66
2023/12/15 03:25:57;;;;;;;4.77;2.30;;;5.40;99.90;;;;;;5033497;28;20021;-66
2023/12/15 03:28:22;;;;;;;5.90;2.23;;;5.50;99.90;;;;;;5033660;28;20079;-67
2023/12/15 03:30:48;;;;;;;4.97;2.50;;;5.50;99.90;;;;;;5033723;28;20100;-66
2023/12/15 03:33:14;;;;;;;7.43;3.53;;;5.50;99.90;;;;;;5033460;28;20018;-66
2023/12/15 03:35:40;;;;;;;5.70;3.40;;;5.60;99.90;;;;;;5033395;28;20687;-67
2023/12/15 03:38:06;;;;;;;5.50;3.47;;;5.50;99.90;;;;;;5033505;28;20037;-66
2023/12/15 03:40:32;;;;;;;5.63;4.03;;;5.50;99.90;;;;;;5033248;28;20152;-66
2023/12/15 03:42:58;;;;;;;7.13;4.10;;;5.50;99.90;;;;;;5033300;28;20032;-66
2023/12/15 03:45:25;;;;;;;6.77;4.10;;;5.50;99.90;;;;;;5033796;28;20029;-66
2023/12/15 03:47:51;;;;;;;4.70;2.30;;;5.40;99.90;;;;;;5033474;28;20025;-66
2023/12/15 03:50:18;;;;;;;5.80;2.63;;;5.40;99.90;;;;;;5033614;28;20029;-66
2023/12/15 03:52:44;;;;;;;5.70;2.30;;;5.40;99.90;;;;;;5033439;28;20036;-66
2023/12/15 03:59:22;;;;;;;4.80;2.23;;;5.40;99.90;;;;;;5001494;28;20047;-66
2023/12/15 04:02:20;;;;;;;3.83;2.00;;;5.50;99.90;;;;;;4914485;29;20119;-66
2023/12/15 04:05:28;;;;;;;3.70;2.07;;;5.50;99.90;;;;;;4882811;29;20195;-66
2023/12/15 04:18:59;;;;;;;2.87;1.63;;;5.60;99.90;;;;;;4927046;28;20079;-66
2023/12/15 04:21:25;;;;;;;7.03;4.53;;;5.60;99.90;;;;;;4920150;29;20499;-67
2023/12/15 04:23:51;;;;;;;3.87;2.30;;;5.60;99.90;;;;;;4923275;29;20452;-66
2023/12/15 04:26:18;;;;;;;3.70;1.73;;;5.60;99.90;;;;;;4994233;28;20061;-66
2023/12/15 04:28:44;;;;;;;6.00;1.60;;;5.60;99.90;;;;;;5015087;28;20441;-66
2023/12/15 04:31:13;;;;;;;4.67;2.07;;;5.60;99.90;;;;;;5032571;28;20025;-66
2023/12/15 04:33:39;;;;;;;6.57;2.00;;;5.60;99.90;;;;;;5032689;28;20386;-66
2023/12/15 04:36:06;;;;;;;2.30;1.37;;;5.60;99.90;;;;;;5032745;28;20035;-66
2023/12/15 04:38:31;;;;;;;4.33;1.67;;;5.60;99.90;;;;;;5036323;28;20038;-66
2023/12/15 04:44:59;;;;;;;5.77;2.00;;;5.60;99.90;;;;;;4974956;28;20031;-66
2023/12/15 04:47:43;;;;;;;4.80;2.10;;;5.60;99.90;;;;;;4929089;28;20047;-66
2023/12/15 04:50:27;;;;;;;3.53;1.83;;;5.60;99.90;;;;;;4975420;28;20121;-66
2023/12/15 04:56:33;;;;;;;5.40;1.90;;;5.60;99.90;;;;;;4957140;28;20533;-66
2023/12/15 04:59:09;;;;;;;4.10;2.10;;;5.60;99.90;;;;;;4917870;29;20056;-66
2023/12/15 05:02:06;;;;;;;6.73;1.50;;;5.50;99.90;;;;;;4918109;29;20102;-66
2023/12/15 05:04:35;;;;;;;5.60;1.53;;;5.50;99.90;;;;;;4917704;29;20460;-66
2023/12/15 05:07:02;;;;;;;2.50;1.70;;;5.50;99.90;;;;;;4917887;29;20432;-67
2023/12/15 05:09:28;;;;;;;7.40;2.03;;;5.50;99.90;;;;;;4969858;28;20386;-66
2023/12/15 05:11:54;;;;;;;2.70;1.60;;;5.50;99.90;;;;;;5036378;28;20453;-66
2023/12/15 05:14:20;;;;;;;4.40;1.67;;;5.50;99.90;;;;;;5036347;28;20370;-66
2023/12/15 05:16:46;;;;;;;3.47;1.90;;;5.60;99.90;;;;;;5036237;28;20053;-67
2023/12/15 05:19:11;;;;;;;3.77;2.00;;;5.60;99.90;;;;;;5036070;28;20503;-67
2023/12/15 05:21:37;;;;;;;4.63;2.30;;;5.50;99.90;;;;;;5035924;28;20034;-66
2023/12/15 05:24:03;;;;;;;3.70;1.97;;;5.50;99.90;;;;;;5036045;28;20049;-66
2023/12/15 05:26:29;;;;;;;3.97;1.90;;;5.60;99.90;;;;;;5035627;28;20033;-65
2023/12/15 05:28:55;;;;;;;4.43;2.53;;;5.50;99.90;;;;;;5035712;28;20061;-67
2023/12/15 05:31:20;;;;;;;4.13;2.80;;;5.60;99.90;;;;;;5036008;28;20040;-66
2023/12/15 05:33:46;;;;;;;7.70;4.37;;;5.50;99.90;;;;;;5035819;28;20108;-66
2023/12/15 05:36:19;;;;;;;9.65;5.05;;;5.50;99.90;;;;;;5035378;28;20036;-66
2023/12/15 05:38:46;;;;;;;7.25;4.38;;;5.40;99.90;;;;;;5035759;28;20729;-66
2023/12/15 05:41:11;;;;;;;7.07;4.57;;;5.40;99.90;;;;;;5042664;28;20078;-67
2023/12/15 05:43:37;;;;;;;6.43;3.90;;;5.30;99.90;;;;;;5055721;28;20021;-66
2023/12/15 05:46:03;;;;;;;6.63;4.40;;;5.20;99.90;;;;;;5055450;28;20028;-66
2023/12/15 05:48:29;;;;;;;7.30;4.63;;;5.10;99.90;;;;;;5055413;28;20063;-66
2023/12/15 05:50:54;;;;;;;9.23;4.93;;;5.10;99.90;;;;;;5055272;28;20100;-67
2023/12/15 05:53:20;;;;;;;7.33;4.70;;;5.10;99.90;;;;;;5055497;28;20032;-68
2023/12/15 05:55:47;;;;;;;8.47;4.73;;;5.00;99.90;;;;;;5055513;28;20017;-68
2023/12/15 05:58:13;;;;;;;7.80;5.00;;;5.00;99.90;;;;;;5055102;28;20033;-68
2023/12/15 06:00:39;;;;;;;7.13;4.67;;;5.00;99.90;;;;;;5055280;28;20017;-67
2023/12/15 06:03:05;;;;;;;8.43;4.87;;;5.00;99.90;;;;;;5055364;28;20029;-67
2023/12/15 06:05:34;;;;;;;6.23;4.87;;;5.00;99.90;;;;;;5055232;28;20060;-68
2023/12/15 06:08:03;;;;;;;9.57;5.60;;;4.90;99.90;;;;;;5054969;28;20049;-67
2023/12/15 06:10:29;;;;;;;6.73;4.77;;;4.90;99.90;;;;;;5055060;28;20028;-67
2023/12/15 06:12:54;;;;;;;8.50;5.43;;;4.80;99.90;;;;;;5055583;28;20029;-66
2023/12/15 06:15:20;;;;;;;8.33;3.67;;;4.80;99.90;;;;;;5055781;28;20531;-67
2023/12/15 06:17:46;;;;;;;9.70;4.60;;;4.80;99.90;;;;;;5054502;28;20523;-66
2023/12/15 06:20:15;;;;;;;8.73;4.33;;;4.80;99.90;;;;;;5055288;28;20056;-66
2023/12/15 06:22:41;;;;;;;9.87;4.33;;;4.80;99.90;;;;;;5055133;28;20381;-66
2023/12/15 06:25:15;;;;;;;4.77;2.77;;;4.80;99.90;;;;;;5055201;28;20449;-66
2023/12/15 06:30:49;;;;;;;5.70;3.20;;;4.80;99.90;;;;;;5023220;28;20033;-66
2023/12/15 06:37:46;;;;;;;11.40;6.63;;;4.80;99.90;;;;;;4935795;29;20050;-66
2023/12/15 06:40:45;;;;;;;6.53;3.80;;;4.80;99.90;;;;;;4949864;28;20122;-66
2023/12/15 06:50:06;;;;;;;12.93;8.27;;;4.80;99.90;;;;;;4992101;28;20518;-66
2023/12/15 06:53:22;;;;;;;11.60;7.83;;;4.80;99.90;;;;;;4972811;28;20031;-67
2023/12/15 06:55:29;;;;;;;13.37;6.83;;;4.80;99.90;;;;;;4990332;28;20034;-66
2023/12/15 06:57:55;;;;;;;9.07;5.43;;;4.80;99.90;;;;;;5039525;28;20048;-66
2023/12/15 07:00:21;;;;;;;7.63;4.10;;;4.80;99.90;;;;;;5053795;28;20036;-67
2023/12/15 07:02:47;;;;;;;8.57;4.10;;;4.80;99.90;;;;;;5054206;28;20113;-66
2023/12/15 07:05:13;;;;;;;13.17;5.50;;;4.80;99.90;;;;;;5054027;28;20082;-66
2023/12/15 07:07:38;;;;;;;7.00;3.80;;;4.80;99.90;;;;;;5053877;28;20029;-66
2023/12/15 07:10:05;;;;;;;5.87;2.87;;;4.80;99.90;;;;;;5053875;28;20060;-66
2023/12/15 07:12:31;;;;;;;4.77;2.03;;;4.80;99.90;;;;;;5052272;28;20362;-67
2023/12/15 07:14:56;;;;;;;4.27;1.67;;;4.80;99.90;;;;;;5053997;28;20078;-66
2023/12/15 07:17:22;;;;;;;7.73;2.03;;;4.90;99.90;;;;;;5053865;28;20124;-66
2023/12/15 07:19:48;;;;;;;5.67;2.10;;;4.90;99.90;;;;;;5053882;28;20029;-66
2023/12/15 07:22:13;;;;;;;3.83;1.93;;;4.90;99.90;;;;;;5053657;28;20029;-66
2023/12/15 07:24:42;;;;;;;5.63;2.17;;;5.00;99.90;;;;;;5053586;28;20032;-66
2023/12/15 07:27:08;;;;;;;4.50;2.20;;;5.10;99.90;;;;;;5052288;28;20119;-66
2023/12/15 07:29:34;;;;;;;4.43;2.20;;;5.10;99.90;;;;;;5053694;28;20517;-67
2023/12/15 07:32:00;;;;;;;4.30;1.80;;;5.20;99.90;;;;;;5053635;28;20029;-66
2023/12/15 07:34:25;;;;;;;5.83;1.80;;;5.20;99.90;;;;;;5053283;28;20025;-66
2023/12/15 07:36:51;;;;;;;3.43;1.77;;;5.30;99.90;;;;;;5052904;28;20037;-67
2023/12/15 07:39:21;;;;;;;5.63;1.70;;;5.30;99.90;;;;;;5053000;28;20025;-66
2023/12/15 07:41:50;;;;;;;4.43;1.80;;;5.40;99.90;;;;;;5052781;28;20453;-66
2023/12/15 07:44:16;;;;;;;6.53;2.10;;;5.40;99.90;;;;;;5053194;28;20044;-66
2023/12/15 07:46:43;;;;;;;5.87;2.30;;;5.40;99.90;;;;;;5053188;28;20033;-65
2023/12/15 07:49:09;;;;;;;3.53;1.67;;;5.50;99.90;;;;;;5053358;28;20503;-65
2023/12/15 07:51:35;;;;;;;6.57;1.90;;;5.60;99.90;;;;;;5052959;28;20021;-65
2023/12/15 07:54:01;;;;;;;3.93;1.70;;;5.70;99.90;;;;;;5051902;28;20049;-67
2023/12/15 07:56:29;;;;;;;3.33;1.73;;;5.80;99.90;;;;;;5052826;28;20067;-74
2023/12/15 07:58:56;;;;;;;3.90;1.93;;;5.90;99.90;;;;;;5052820;28;20021;-69
2023/12/15 08:01:23;;;;;;;7.13;2.40;;;6.10;99.90;;;;;;5053063;28;20025;-69
2023/12/15 08:03:52;;;;;;;4.43;2.03;;;6.20;99.90;;;;;;5053743;28;20372;-69
2023/12/15 08:06:19;;;;;;;4.23;2.10;;;6.40;99.90;;;;;;5052222;28;20028;-67
2023/12/15 08:08:46;;;;;;;6.80;3.00;;;6.50;99.90;;;;;;5050400;28;20032;-70
2023/12/15 08:28:11;;;;;;;16.70;8.40;;;7.00;99.90;;;;;;5052426;28;20039;-70
2023/12/15 08:31:14;;;;;;;12.60;6.63;;;7.10;99.90;;;;;;5050023;28;20392;-69
2023/12/15 08:38:42;;;;;;;5.60;2.00;;;7.20;99.90;;;;;;4932968;29;20048;-69
2023/12/15 08:40:46;;;;;;;5.97;1.67;;;7.20;99.90;;;;;;4945216;28;20129;-71
2023/12/15 08:43:13;;;;;;;3.83;2.00;;;7.20;99.90;;;;;;5019006;28;20128;-68
2023/12/15 08:45:39;;;;;;;2.57;1.80;;;7.30;99.90;;;;;;5031241;28;20354;-69
2023/12/15 08:48:05;;;;;;;4.20;1.80;;;7.30;99.90;;;;;;5031299;28;20037;-69
2023/12/15 08:50:31;;;;;;;5.37;1.80;;;7.40;99.90;;;;;;5049773;28;20475;-68
2023/12/15 08:52:57;;;;;;;3.13;1.60;;;7.40;99.90;;;;;;5050715;28;20120;-69
2023/12/15 08:55:22;;;;;;;3.10;1.80;;;7.40;99.90;;;;;;5051985;28;20385;-68
2023/12/15 08:57:51;;;;;;;2.87;1.80;;;7.50;99.90;;;;;;5051639;28;20069;-68
2023/12/15 09:00:17;;;;;;;3.17;1.90;;;7.50;99.90;;;;;;5051709;28;20096;-69
2023/12/15 09:02:43;;;;;;;6.17;1.77;;;7.50;99.90;;;;;;5051527;28;20057;-69
2023/12/15 09:05:09;;;;;;;6.50;1.77;;;7.60;99.90;;;;;;5051856;28;20064;-69
2023/12/15 09:07:34;;;;;;;2.97;1.80;;;7.60;99.90;;;;;;5052207;28;20060;-69
2023/12/15 09:10:00;;;;;;;2.30;1.50;;;7.60;99.90;;;;;;5051947;28;20025;-68
2023/12/15 09:12:26;;;;;;;5.10;1.80;;;7.60;99.90;;;;;;5051825;28;20418;-67
2023/12/15 09:14:52;;;;;;;7.03;2.00;;;7.60;99.90;;;;;;5051788;28;20029;-68
2023/12/15 09:17:18;;;;;;;4.80;2.00;;;7.70;99.90;;;;;;5051827;28;20049;-66
2023/12/15 09:19:44;;;;;;;4.60;1.97;;;7.70;99.90;;;;;;5052005;28;20073;-68
2023/12/15 09:22:10;;;;;;;5.77;2.23;;;7.70;99.90;;;;;;5051405;28;20431;-68
2023/12/15 09:24:36;;;;;;;4.43;2.00;;;7.70;99.90;;;;;;5055428;28;20021;-70
2023/12/15 09:27:02;;;;;;;5.03;1.83;;;7.70;99.90;;;;;;5055523;28;20033;-70
2023/12/15 09:29:28;;;;;;;6.77;2.07;;;7.70;99.90;;;;;;5055170;28;20044;-69
2023/12/15 09:31:55;;;;;;;4.67;2.07;;;7.70;99.90;;;;;;5054531;28;20127;-69
2023/12/15 09:34:23;;;;;;;2.83;1.93;;;7.80;99.90;;;;;;5055299;28;20056;-69
2023/12/15 09:36:49;;;;;;;4.87;1.60;;;7.80;99.90;;;;;;5055617;28;20039;-68
2023/12/15 09:39:15;;;;;;;6.50;1.80;;;7.90;99.90;;;;;;5052945;28;20040;-69
2023/12/15 09:41:41;;;;;;;6.30;2.93;;;7.90;99.90;;;;;;5052495;28;20049;-69
2023/12/15 09:44:07;;;;;;;4.63;2.53;;;7.90;99.90;;;;;;5054339;28;20025;-69
2023/12/15 09:46:37;;;;;;;3.60;2.10;;;8.00;99.90;;;;;;5054129;28;20021;-69
2023/12/15 09:49:06;;;;;;;5.30;2.03;;;8.00;99.90;;;;;;5054016;28;20114;-70
2023/12/15 09:55:53;;;;;;;5.30;2.27;;;8.10;99.90;;;;;;5053106;28;20036;-69
2023/12/15 10:06:06;;;;;;;4.90;1.70;;;8.30;99.90;;;;;;4932752;29;20055;-70
2023/12/15 10:10:58;;;;;;;3.93;1.40;;;8.40;99.90;;;;;;5115727;22;20166;-72
2023/12/15 10:13:23;;;;;;;3.90;1.67;;;8.40;99.90;;;;;;5073978;28;20400;-74
2023/12/15 10:15:50;;;;;;;3.40;1.77;;;8.50;99.90;;;;;;5060320;28;20021;-72
2023/12/15 10:18:16;;;;;;;2.70;1.40;;;8.50;99.90;;;;;;5053284;28;20542;-73
2023/12/15 10:20:43;;;;;;;2.70;1.80;;;8.60;99.90;;;;;;5053550;28;20032;-72
2023/12/15 10:23:09;;;;;;;3.17;1.63;;;8.60;99.90;;;;;;5053920;28;20463;-74
2023/12/15 10:25:35;;;;;;;2.87;2.00;;;8.60;99.90;;;;;;5041231;28;20156;-72
2023/12/15 10:28:04;;;;;;;2.47;1.37;;;8.70;99.90;;;;;;5024406;28;20051;-73
2023/12/15 10:30:29;;;;;;;3.37;1.70;;;8.80;99.90;;;;;;5053759;28;20380;-76
2023/12/15 10:32:58;;;;;;;4.47;1.90;;;8.90;99.90;;;;;;5053790;28;20029;-75
2023/12/15 10:35:25;;;;;;;3.00;1.77;;;8.90;99.90;;;;;;5052319;28;20021;-74
2023/12/15 10:37:52;;;;;;;3.90;1.43;;;9.00;99.90;;;;;;5054189;28;20048;-73
2023/12/15 10:40:18;;;;;;;6.17;1.60;;;9.00;99.90;;;;;;5053937;28;20401;-73
2023/12/15 10:42:44;;;;;;;2.87;1.43;;;9.10;99.90;;;;;;5054301;28;20510;-74
2023/12/15 10:45:10;;;;;;;3.23;1.70;;;9.10;99.90;;;;;;5054436;28;20025;-73
2023/12/15 10:47:37;;;;;;;2.53;1.70;;;9.20;99.90;;;;;;5053886;28;20025;-73
2023/12/15 10:50:04;;;;;;;7.00;1.63;;;9.30;99.90;;;;;;5054270;28;20017;-73
2023/12/15 10:52:33;;;;;;;5.50;1.70;;;9.30;99.90;;;;;;5054242;28;20029;-73
2023/12/15 10:55:02;;;;;;;8.50;1.80;;;9.40;99.70;;;;;;5054088;28;20415;-73
2023/12/15 10:57:30;;;;;;;6.27;1.60;;;9.40;99.60;;;;;;5053751;28;20055;-73
2023/12/15 10:59:57;;;;;;;3.80;1.60;;;9.50;99.50;;;;;;5053820;28;20369;-73
2023/12/15 11:02:27;;;;;;;8.53;1.67;;;9.50;99.40;;;;;;5053840;28;20040;-73
2023/12/15 11:04:55;;;;;;;3.10;1.80;;;9.60;98.90;;;;;;5053448;28;20085;-73
2023/12/15 11:07:24;;;;;;;6.30;1.63;;;9.60;98.60;;;;;;5053800;28;20055;-73
2023/12/15 11:09:51;;;;;;;4.37;1.80;;;9.70;98.50;;;;;;5053388;28;20044;-73
2023/12/15 11:12:22;;;;;;;8.87;2.40;;;9.80;98.20;;;;;;5035569;28;20090;-73
2023/12/15 11:15:02;;;;;;;5.60;2.10;;;9.80;97.90;;;;;;5053836;28;20481;-73
2023/12/15 11:17:29;;;;;;;5.63;1.63;;;9.90;97.80;;;;;;5053601;28;20033;-74
2023/12/15 11:20:08;;;;;;;6.20;2.13;;;10.00;97.70;;;;;;5053561;28;20024;-73
2023/12/15 11:22:54;;;;;;;7.03;1.70;;;10.00;96.90;;;;;;5053790;28;20017;-74
2023/12/15 11:25:24;;;;;;;4.80;1.40;;;10.10;96.20;;;;;;5053367;28;20033;-73
2023/12/15 11:28:09;;;;;;;4.00;1.20;;;10.10;95.80;;;;;;5053380;28;20025;-73
2023/12/15 11:30:44;;;;;;;2.47;0.90;;;10.20;95.20;;;;;;5053183;28;20497;-74
2023/12/15 11:33:31;;;;;;;1.10;0.40;;;10.20;94.80;;;;;;5052849;28;20017;-72
2023/12/15 11:36:01;;;;;;;2.63;0.70;;;10.30;94.10;;;;;;5053532;28;20503;-74
2023/12/15 11:38:27;;;;;;;0.93;0.53;;;10.30;93.90;;;;;;5053370;28;20044;-73
2023/12/15 11:40:54;;;;;;;0.90;0.65;;;10.40;94.20;;;;;;5052004;28;20021;-74
2023/12/15 11:43:20;;;;;;;1.58;0.80;;;10.50;93.00;;;;;;5052448;28;20045;-73
2023/12/15 11:45:48;;;;;;;2.40;0.80;;;10.50;92.40;;;;;;5052943;28;20095;-72
2023/12/15 11:48:14;;;;;;;2.63;0.63;;;10.50;92.80;;;;;;5052673;28;20093;-74
2023/12/15 11:50:43;;;;;;;1.00;0.60;;;10.60;91.20;;;;;;5053003;28;20036;-73
2023/12/15 11:53:15;;;;;;;1.20;0.70;;;10.60;91.20;;;;;;5035262;28;20112;-73
2023/12/15 11:55:46;;;;;;;0.70;0.60;;;10.60;91.10;;;;;;5052722;28;20025;-73
2023/12/15 11:58:14;;;;;;;1.00;0.60;;;10.60;91.20;;;;;;5053114;28;20140;-73
2023/12/15 12:00:40;;;;;;;1.13;0.60;;;10.60;90.10;;;;;;5052864;28;20024;-73
2023/12/15 12:03:09;;;;;;;3.22;0.63;;;10.70;90.40;;;;;;5052312;28;20039;-73
2023/12/15 12:05:35;;;;;;;1.00;0.70;;;10.70;90.50;;;;;;5052427;28;20025;-73
2023/12/15 12:08:01;;;;;;;2.58;0.70;;;10.80;90.60;;;;;;5052724;28;20028;-73
2023/12/15 12:10:40;;;;;;;3.27;0.70;;;10.80;90.50;;;;;;5052228;28;20045;-74
2023/12/15 12:13:07;;;;;;;0.90;0.73;;;10.80;89.80;;;;;;5050812;28;20035;-74
2023/12/15 12:15:47;;;;;;;1.25;0.70;;;10.80;89.60;;;;;;5050047;28;20027;-73
2023/12/15 12:18:13;;;;;;;0.50;0.40;;;10.80;88.90;;;;;;5050677;28;20041;-73
2023/12/15 12:20:41;;;;;;;1.10;0.60;;;10.90;89.00;;;;;;5052657;28;20078;-70
2023/12/15 12:23:07;;;;;;;1.00;0.70;;;10.90;88.90;;;;;;5052741;28;20024;-72
2023/12/15 12:25:33;;;;;;;1.00;0.55;;;10.90;88.00;;;;;;5052477;28;20021;-74
2023/12/15 12:27:58;;;;;;;1.00;0.60;;;10.90;86.90;;;;;;5052283;28;20028;-73
2023/12/15 12:30:24;;;;;;;1.48;0.63;;;10.90;86.80;;;;;;5052202;28;20025;-73
2023/12/15 12:32:50;;;;;;;1.10;0.68;;;10.90;86.30;;;;;;5051838;28;20021;-73
2023/12/15 12:35:16;;;;;;;2.40;0.80;;;10.90;85.30;;;;;;5052426;28;20028;-72
2023/12/15 12:37:41;;;;;;;1.17;0.77;;;10.90;86.30;;;;;;5051419;28;20025;-71
2023/12/15 12:40:08;;;;;;;2.72;0.60;;;10.90;85.80;;;;;;5049716;28;20040;-73
2023/12/15 12:42:34;;;;;;;2.45;0.70;;;10.90;85.50;;;;;;5049497;28;20831;-73
2023/12/15 12:44:59;;;;;;;2.37;0.70;;;10.90;83.90;;;;;;5050926;28;20142;-73
2023/12/15 12:47:26;;;;;;;3.97;0.50;;;10.90;84.50;;;;;;5052246;28;20020;-73
2023/12/15 12:49:52;;;;;;;2.28;0.90;;;10.90;85.00;;;;;;5052494;28;20126;-72
2023/12/15 12:52:18;;;;;;;1.83;0.90;;;11.00;84.30;;;;;;5052421;28;20354;-72
2023/12/15 12:54:44;;;;;;;2.55;0.60;;;10.90;83.20;;;;;;5051911;28;20453;-73
2023/12/15 12:57:10;;;;;;;0.88;0.65;;;10.90;83.40;;;;;;5052302;28;20036;-73
2023/12/15 12:59:43;;;;;;;7.57;1.00;;;11.00;83.10;;;;;;5056107;28;20045;-73
2023/12/15 13:02:09;;;;;;;1.02;0.65;;;10.90;83.70;;;;;;5055794;28;20036;-73
2023/12/15 13:04:35;;;;;;;1.02;0.60;;;11.00;82.90;;;;;;5055981;28;20024;-72
2023/12/15 13:07:01;;;;;;;1.50;0.70;;;10.90;83.60;;;;;;5055874;28;20028;-73
2023/12/15 13:09:26;;;;;;;1.52;0.80;;;10.90;83.60;;;;;;5055557;28;20091;-72
2023/12/15 13:11:52;;;;;;;2.15;1.02;;;10.90;83.70;;;;;;5037932;28;20516;-74
2023/12/15 13:14:18;;;;;;;5.05;0.80;;;10.90;83.70;;;;;;5055849;28;20067;-72
2023/12/15 13:16:45;;;;;;;1.45;0.70;;;10.90;84.40;;;;;;5036712;28;20031;-73
2023/12/15 13:19:12;;;;;;;1.70;0.90;;;10.90;84.00;;;;;;5055357;28;20540;-71
2023/12/15 13:21:38;;;;;;;2.20;1.02;;;10.90;83.40;;;;;;5055568;28;20055;-72
2023/12/15 13:24:04;;;;;;;1.20;0.88;;;10.90;81.80;;;;;;5054688;28;20029;-73
2023/12/15 13:26:31;;;;;;;6.85;1.02;;;10.90;82.50;;;;;;5052718;28;20094;-73
2023/12/15 13:28:57;;;;;;;1.13;0.80;;;10.90;82.00;;;;;;5053161;28;20029;-72
2023/12/15 13:31:23;;;;;;;1.80;0.57;;;10.90;81.90;;;;;;5071613;28;20029;-73
2023/12/15 13:33:50;;;;;;;1.42;0.77;;;10.80;81.10;;;;;;5073713;28;20031;-74
2023/12/15 13:36:16;;;;;;;1.63;0.87;;;10.90;81.00;;;;;;5073465;28;20112;-73
2023/12/15 13:38:45;;;;;;;1.83;0.80;;;10.80;82.00;;;;;;5073277;28;20040;-73
2023/12/15 13:41:11;;;;;;;1.40;0.80;;;10.80;82.90;;;;;;5073352;28;20016;-73
2023/12/15 13:43:39;;;;;;;1.83;1.10;;;10.80;81.80;;;;;;5073887;28;20036;-74
2023/12/15 13:46:06;;;;;;;1.60;0.88;;;10.80;82.50;;;;;;5073364;28;20032;-73
2023/12/15 13:48:32;;;;;;;1.80;0.93;;;10.70;82.30;;;;;;5073474;28;20028;-73
2023/12/15 13:50:59;;;;;;;2.22;1.30;;;10.80;83.10;;;;;;5073083;28;20417;-74
2023/12/15 13:53:28;;;;;;;3.65;1.10;;;10.80;83.40;;;;;;5073169;28;20391;-74
2023/12/15 13:55:55;;;;;;;4.10;1.13;;;10.70;83.70;;;;;;5073186;28;20021;-73
2023/12/15 13:58:20;;;;;;;2.60;1.02;;;10.70;83.70;;;;;;5073143;28;20657;-73
2023/12/15 14:00:47;;;;;;;1.88;1.15;;;10.70;84.00;;;;;;5073265;28;20036;-74
2023/12/15 14:03:14;;;;;;;1.60;0.90;;;10.70;83.50;;;;;;5074810;28;20055;-73
2023/12/15 14:05:40;;;;;;;2.05;1.20;;;10.70;81.80;;;;;;5074939;28;20024;-73
2023/12/15 14:08:07;;;;;;;2.13;1.13;;;10.70;82.20;;;;;;5074895;28;20106;-74
2023/12/15 14:10:32;;;;;;;1.38;0.85;;;10.70;81.90;;;;;;5074175;28;20056;-73
2023/12/15 14:12:58;;;;;;;1.90;1.08;;;10.60;82.60;;;;;;5074971;28;20024;-73
2023/12/15 14:15:24;;;;;;;1.80;1.20;;;10.60;82.70;;;;;;5075029;28;20099;-74
2023/12/15 14:17:50;;;;;;;2.22;1.55;;;10.60;83.20;;;;;;5057035;28;20044;-73
2023/12/15 14:20:17;;;;;;;1.67;1.10;;;10.60;82.70;;;;;;5074953;28;20029;-73
2023/12/15 14:22:42;;;;;;;3.60;1.30;;;10.50;83.40;;;;;;5074944;28;20029;-73
2023/12/15 14:25:09;;;;;;;2.55;1.48;;;10.50;83.50;;;;;;5074706;28;20029;-72
2023/12/15 14:27:38;;;;;;;5.68;1.38;;;10.50;83.40;;;;;;5074631;28;20081;-73
2023/12/15 14:30:05;;;;;;;2.35;1.30;;;10.50;83.30;;;;;;5074513;28;20012;-72
2023/12/15 14:32:32;;;;;;;3.53;1.52;;;10.50;83.40;;;;;;5074543;28;20070;-73
2023/12/15 14:35:00;;;;;;;2.80;1.38;;;10.50;83.00;;;;;;5074469;28;20016;-73
2023/12/15 14:37:29;;;;;;;3.08;1.40;;;10.40;82.70;;;;;;5074465;28;20036;-73
2023/12/15 14:39:55;;;;;;;3.13;1.50;;;10.40;83.20;;;;;;5074439;28;20036;-73
2023/12/15 14:42:21;;;;;;;2.87;1.43;;;10.40;83.10;;;;;;5074384;28;20610;-73
2023/12/15 14:44:46;;;;;;;2.95;1.60;;;10.40;82.90;;;;;;5067017;28;20029;-73
2023/12/15 14:47:12;;;;;;;3.03;1.50;;;10.30;83.50;;;;;;5053829;28;20037;-74
2023/12/15 14:49:38;;;;;;;2.67;1.65;;;10.30;83.70;;;;;;5053824;28;20032;-73